Time;durP1;ratioP1;P1;durP2;ratioP2;P2;SDS_P1;SDS_P2;PMS_P1;PMS_P2;Temp;Humidity;BMP_temperature;BMP_pressure;BME280_temperature;BME280_humidity;BME280_pressure;Samples;Min_cycle;Max_cycle;Signal;HPM_P1;HPM_P2
2021/08/23 00:01:12;;;;;;;10.17;9.17;;;21.80;99.90;;;22.08;59.93;101454.59;4980582;27;106190;-48
2021/08/23 00:03:38;;;;;;;7.90;6.20;;;21.80;99.90;;;22.06;59.89;101461.91;4985397;27;98205;-50
2021/08/23 00:06:05;;;;;;;9.00;6.80;;;21.70;99.90;;;22.04;59.96;101457.59;4969232;27;98514;-50
2021/08/23 00:08:30;;;;;;;7.47;6.67;;;21.70;99.90;;;22.04;60.03;101463.81;4970020;28;108288;-48
2021/08/23 00:10:58;;;;;;;8.77;7.90;;;21.70;99.90;;;22.06;60.01;101463.75;4976220;27;97780;-48
2021/08/23 00:13:24;;;;;;;10.63;8.70;;;21.70;99.90;;;22.01;60.05;101458.69;4969577;27;97904;-49
2021/08/23 00:15:54;;;;;;;8.03;7.07;;;21.70;99.90;;;21.99;60.16;101447.19;4975716;28;97501;-50
2021/08/23 00:18:21;;;;;;;4.60;4.20;;;21.60;99.90;;;21.97;60.31;101455.31;4970426;27;101087;-50
2021/08/23 00:21:12;;;;;;;7.27;6.57;;;21.60;99.90;;;21.97;60.12;101457.16;4987921;27;99708;-46
2021/08/23 00:23:36;;;;;;;7.67;6.20;;;21.60;99.90;;;21.94;60.34;101452.84;4969544;27;97035;-48
2021/08/23 00:26:03;;;;;;;8.53;6.20;;;21.60;99.90;;;21.95;60.34;101457.25;4972607;27;101527;-55
2021/08/23 00:28:29;;;;;;;8.10;7.40;;;21.60;99.90;;;21.95;60.35;101453.72;4970473;28;98351;-49
2021/08/23 00:30:55;;;;;;;9.43;8.43;;;21.60;99.90;;;21.94;60.35;101442.13;4972070;28;98273;-47
2021/08/23 00:33:21;;;;;;;7.13;6.43;;;21.60;99.90;;;21.95;60.26;101449.22;4985731;27;99420;-51
2021/08/23 00:35:47;;;;;;;10.23;6.50;;;21.60;99.90;;;21.95;60.33;101445.66;4970705;28;99824;-51
2021/08/23 00:38:13;;;;;;;5.30;4.80;;;21.60;99.90;;;21.96;60.28;101453.59;4976623;27;98871;-51
2021/08/23 00:40:38;;;;;;;6.67;5.40;;;21.60;99.90;;;21.98;60.12;101448.13;4992533;27;97167;-51
2021/08/23 00:43:05;;;;;;;4.93;4.30;;;21.70;99.90;;;22.00;60.06;101448.91;4983269;28;97291;-50
2021/08/23 00:45:31;;;;;;;7.03;4.70;;;21.70;99.90;;;22.01;60.04;101441.69;4987486;28;97008;-51
2021/08/23 00:47:59;;;;;;;4.17;3.77;;;21.70;99.90;;;22.00;60.08;101440.84;4987608;28;97403;-48
2021/08/23 00:50:25;;;;;;;4.50;3.63;;;21.70;99.90;;;22.01;60.06;101442.56;4998082;27;99512;-50
2021/08/23 00:52:51;;;;;;;3.83;3.07;;;21.70;99.90;;;22.03;59.97;101451.38;4987984;28;98323;-49
2021/08/23 00:55:17;;;;;;;3.43;3.13;;;21.80;99.90;;;22.06;59.78;101459.22;4981761;28;97503;-51
2021/08/23 00:57:43;;;;;;;3.37;3.13;;;21.80;99.90;;;22.05;59.97;101444.09;4989907;27;100901;-52
2021/08/23 01:00:10;;;;;;;5.03;3.53;;;21.80;99.90;;;22.09;59.94;101460.84;4982206;27;98807;-46
2021/08/23 01:02:57;;;;;;;6.70;4.40;;;21.80;99.90;;;22.09;59.78;101456.31;4991300;28;97642;-51
2021/08/23 01:05:30;;;;;;;6.13;5.53;;;21.80;99.90;;;22.06;59.86;101461.91;4985942;28;98487;-46
2021/08/23 01:08:06;;;;;;;4.40;3.00;;;21.70;99.90;;;22.04;59.84;101447.72;4989297;28;96828;-48
2021/08/23 01:10:42;;;;;;;5.90;4.43;;;21.70;99.90;;;22.01;59.92;101453.31;4981190;28;100055;-51
2021/08/23 01:13:08;;;;;;;4.97;3.80;;;21.60;99.90;;;21.97;60.06;101452.63;4985411;28;97446;-53
2021/08/23 01:15:36;;;;;;;3.03;2.80;;;21.60;99.90;;;21.96;60.08;101455.44;4988150;28;96929;-50
2021/08/23 01:18:03;;;;;;;2.40;2.20;;;21.60;99.90;;;21.95;60.20;101459.09;4987053;27;97273;-56
2021/08/23 01:20:35;;;;;;;4.60;3.70;;;21.60;99.90;;;21.96;60.19;101458.97;4984795;28;101118;-48
2021/08/23 01:23:03;;;;;;;6.27;5.03;;;21.60;99.90;;;21.95;60.04;101459.94;4992377;27;97341;-49
2021/08/23 01:25:31;;;;;;;3.40;3.10;;;21.60;99.90;;;21.96;60.34;101460.81;4989044;28;97914;-49
2021/08/23 01:28:39;;;;;;;2.97;2.77;;;21.60;99.90;;;21.98;60.35;101461.56;4987028;28;100665;-56
2021/08/23 01:31:14;;;;;;;5.77;5.10;;;21.60;99.90;;;21.96;60.15;101458.13;4979677;28;103374;-52
2021/08/23 01:33:44;;;;;;;5.07;4.13;;;21.60;99.90;;;21.95;60.36;101469.84;4988883;28;96926;-49
2021/08/23 01:36:11;;;;;;;2.67;2.47;;;21.60;99.90;;;21.93;60.27;101471.78;4988703;28;96864;-51
2021/08/23 01:38:37;;;;;;;6.57;5.63;;;21.60;99.90;;;21.91;60.28;101462.97;4992123;27;96871;-49
2021/08/23 01:41:09;;;;;;;6.87;6.17;;;21.60;99.90;;;21.91;60.16;101473.72;4985264;28;100687;-56
2021/08/23 01:43:36;;;;;;;5.93;5.33;;;21.60;99.90;;;21.90;60.24;101472.00;4991094;27;96839;-50
2021/08/23 01:46:02;;;;;;;2.70;2.50;;;21.50;99.90;;;21.89;60.23;101478.34;4991057;28;97579;-56
2021/08/23 01:48:28;;;;;;;2.80;2.60;;;21.50;99.90;;;21.89;60.32;101470.28;4981294;28;103061;-51
2021/08/23 01:50:55;;;;;;;2.33;2.13;;;21.50;99.90;;;21.92;60.15;101475.44;4989875;27;98010;-52
2021/08/23 01:53:21;;;;;;;2.50;2.30;;;21.60;99.90;;;21.93;60.14;101477.16;4989852;28;97759;-48
2021/08/23 01:55:47;;;;;;;3.80;3.50;;;21.60;99.90;;;21.93;60.21;101477.16;4989495;28;97480;-48
2021/08/23 01:58:15;;;;;;;2.40;2.20;;;21.60;99.90;;;21.93;60.27;101477.16;4988539;28;99588;-51
2021/08/23 02:00:41;;;;;;;2.20;2.00;;;21.60;99.90;;;21.93;60.22;101483.38;4992218;28;96823;-51
2021/08/23 02:03:06;;;;;;;2.77;2.57;;;21.60;99.90;;;21.94;60.11;101484.22;4988740;28;105739;-49
2021/08/23 02:05:32;;;;;;;2.37;2.17;;;21.60;99.90;;;21.95;60.12;101485.94;4990736;27;96995;-51
2021/08/23 02:07:58;;;;;;;2.37;2.17;;;21.60;99.90;;;21.98;60.12;101485.72;4994550;28;96981;-48
2021/08/23 02:10:25;;;;;;;1.93;1.83;;;21.70;99.90;;;22.01;59.97;101485.53;4992091;27;97194;-49
2021/08/23 02:12:51;;;;;;;2.23;2.03;;;21.70;99.90;;;22.05;59.90;101491.53;4993680;28;97188;-48
2021/08/23 02:15:17;;;;;;;2.17;2.07;;;21.80;99.90;;;22.08;59.71;101494.91;4988411;27;97438;-48
2021/08/23 02:17:43;;;;;;;7.60;5.93;;;21.80;99.90;;;22.06;59.74;101488.78;4993208;28;100526;-46
2021/08/23 02:20:12;;;;;;;9.13;8.20;;;21.80;99.90;;;22.02;59.80;101487.25;4995375;27;98172;-50
2021/08/23 02:22:41;;;;;;;5.13;4.07;;;21.70;99.90;;;21.99;60.02;101492.84;4997277;28;99070;-46
2021/08/23 02:25:09;;;;;;;4.93;4.50;;;21.60;99.90;;;21.95;60.13;101492.19;4986170;27;96994;-49
2021/08/23 02:27:34;;;;;;;5.03;4.53;;;21.60;99.90;;;21.93;60.11;101493.25;4995238;27;97289;-49
2021/08/23 02:30:01;;;;;;;2.50;2.30;;;21.60;99.90;;;21.93;60.35;101487.88;4988903;28;99746;-48
2021/08/23 02:32:27;;;;;;;2.30;2.10;;;21.60;99.90;;;21.92;60.25;101492.41;4988703;27;97423;-47
2021/08/23 02:34:53;;;;;;;2.57;2.37;;;21.60;99.90;;;21.95;60.24;101496.69;4991028;28;97050;-48
2021/08/23 02:37:19;;;;;;;3.80;3.50;;;21.60;99.90;;;21.95;60.11;101508.28;4987251;28;97578;-49
2021/08/23 02:39:45;;;;;;;7.70;7.00;;;21.60;99.90;;;21.94;60.14;101505.72;4980914;28;97421;-49
2021/08/23 02:42:10;;;;;;;9.67;7.10;;;21.60;99.90;;;21.91;60.43;101505.94;4983487;27;96777;-48
2021/08/23 02:44:36;;;;;;;11.37;9.57;;;21.50;99.90;;;21.90;60.32;101520.34;4992750;28;97699;-51
2021/08/23 02:47:02;;;;;;;9.03;8.13;;;21.50;99.90;;;21.85;60.39;101512.63;4987595;28;98975;-52
2021/08/23 02:49:28;;;;;;;6.97;6.00;;;21.50;99.90;;;21.82;60.53;101525.38;4972541;28;101735;-49
2021/08/23 02:51:54;;;;;;;9.93;8.43;;;21.30;99.90;;;21.78;60.70;101521.19;4987690;28;97281;-51
2021/08/23 02:54:21;;;;;;;10.07;8.33;;;21.30;99.90;;;21.77;60.72;101530.22;4989846;27;96976;-47
2021/08/23 02:56:48;;;;;;;3.27;2.97;;;21.30;99.90;;;21.73;60.79;101534.06;4995653;28;99021;-49
2021/08/23 02:59:14;;;;;;;2.50;2.30;;;21.30;99.90;;;21.72;60.97;101532.38;4986141;27;96767;-49
2021/08/23 03:01:39;;;;;;;4.60;3.50;;;21.30;99.90;;;21.75;60.98;101538.38;4992730;28;97222;-49
2021/08/23 03:04:05;;;;;;;4.90;4.03;;;21.30;99.90;;;21.74;60.88;101542.03;4990820;27;97530;-50
2021/08/23 03:06:31;;;;;;;10.87;9.47;;;21.40;99.90;;;21.74;60.87;101535.78;4995007;28;100084;-49
2021/08/23 03:08:57;;;;;;;11.27;10.17;;;21.30;99.90;;;21.72;60.92;101540.41;4992958;28;97024;-51
2021/08/23 03:11:24;;;;;;;11.17;9.97;;;21.30;99.90;;;21.68;60.98;101537.91;4990459;27;97671;-52
2021/08/23 03:13:50;;;;;;;9.10;8.20;;;21.30;99.90;;;21.65;61.21;101543.50;4985439;28;96933;-46
2021/08/23 03:16:16;;;;;;;11.73;10.47;;;21.20;99.90;;;21.62;61.29;101532.13;4992038;27;98208;-49
2021/08/23 03:18:42;;;;;;;8.13;7.17;;;21.20;99.90;;;21.59;61.31;101543.94;4991860;28;97076;-47
2021/08/23 03:21:08;;;;;;;6.57;5.97;;;21.10;99.90;;;21.59;61.42;101543.94;4971529;28;97213;-47
2021/08/23 03:23:34;;;;;;;3.43;3.13;;;21.20;99.90;;;21.61;61.29;101550.06;4981450;28;97123;-47
2021/08/23 03:26:02;;;;;;;2.60;2.40;;;21.20;99.90;;;21.63;61.18;101545.44;4991600;27;98140;-51
2021/08/23 03:28:28;;;;;;;2.57;2.37;;;21.30;99.90;;;21.68;61.16;101556.72;5003157;27;100846;-49
2021/08/23 03:30:55;;;;;;;2.70;2.23;;;21.30;99.90;;;21.74;60.87;101547.41;4989756;28;98021;-53
2021/08/23 03:33:22;;;;;;;2.13;2.00;;;21.40;99.90;;;21.81;60.62;101550.50;4987592;27;98376;-49
2021/08/23 03:35:48;;;;;;;2.20;2.00;;;21.50;99.90;;;21.90;60.41;101552.56;4991134;28;99486;-48
2021/08/23 03:38:14;;;;;;;2.30;2.10;;;21.70;99.90;;;22.00;60.02;101550.97;4987878;27;97167;-47
2021/08/23 03:40:40;;;;;;;2.27;2.07;;;21.80;99.90;;;22.10;59.83;101554.75;4994899;28;97143;-51
2021/08/23 03:43:06;;;;;;;2.60;2.40;;;21.90;99.90;;;22.16;59.55;101548.09;4985781;28;97332;-49
2021/08/23 03:45:32;;;;;;;6.23;5.63;;;22.10;99.90;;;22.23;59.29;101544.00;4993124;27;97000;-50
2021/08/23 03:47:58;;;;;;;2.40;2.20;;;22.10;99.90;;;22.26;59.33;101541.09;5005853;27;98091;-49
2021/08/23 03:50:23;;;;;;;8.83;7.10;;;22.10;99.90;;;22.26;59.26;101544.63;4985880;28;96999;-49
2021/08/23 03:52:49;;;;;;;2.10;2.00;;;22.10;99.90;;;22.28;59.14;101547.25;4988227;28;97657;-46
2021/08/23 03:55:16;;;;;;;2.40;2.20;;;22.10;99.90;;;22.34;58.96;101549.50;4990871;27;97208;-51
2021/08/23 03:57:41;;;;;;;2.60;2.40;;;22.20;99.90;;;22.37;58.81;101551.09;4990340;27;97251;-49
2021/08/23 04:00:10;;;;;;;2.40;2.10;;;22.20;99.90;;;22.38;58.82;101559.03;4989220;28;101375;-46
2021/08/23 04:02:36;;;;;;;2.20;2.00;;;22.20;99.90;;;22.42;58.70;101559.69;4988297;28;97162;-50
2021/08/23 04:05:03;;;;;;;2.23;2.07;;;22.30;99.90;;;22.44;58.68;101565.84;4988209;27;104184;-53
2021/08/23 04:07:29;;;;;;;2.40;2.20;;;22.30;99.90;;;22.45;58.66;101571.09;4983297;28;104441;-47
2021/08/23 04:09:58;;;;;;;2.27;2.10;;;22.30;99.90;;;22.45;58.61;101564.88;4990693;28;97239;-50
2021/08/23 04:12:24;;;;;;;2.43;2.23;;;22.30;99.90;;;22.45;58.88;101570.25;4989736;28;104426;-54
2021/08/23 04:14:50;;;;;;;9.83;8.17;;;22.30;99.90;;;22.42;58.70;101573.13;4990510;28;99562;-51
2021/08/23 04:17:16;;;;;;;3.80;3.50;;;22.20;99.90;;;22.40;58.88;101577.75;4989308;27;97277;-46
2021/08/23 04:19:42;;;;;;;11.20;10.10;;;22.20;99.90;;;22.37;59.00;101583.34;4986176;28;97352;-46
2021/08/23 04:22:10;;;;;;;14.57;12.50;;;22.10;99.90;;;22.32;59.34;101580.13;4999591;27;97822;-48
2021/08/23 04:24:38;;;;;;;11.73;10.07;;;22.00;99.90;;;22.25;59.42;101585.91;4989831;28;97442;-51
2021/08/23 04:27:04;;;;;;;14.33;11.03;;;21.90;99.90;;;22.19;59.81;101580.13;4989594;27;99508;-53
2021/08/23 04:29:30;;;;;;;14.03;12.60;;;21.80;99.90;;;22.12;60.10;101579.69;4977374;28;108322;-47
2021/08/23 04:31:56;;;;;;;12.77;11.33;;;21.70;99.90;;;22.02;60.20;101583.97;4991561;28;97260;-50
2021/08/23 04:34:21;;;;;;;13.27;11.97;;;21.60;99.90;;;21.96;60.28;101582.53;4988925;28;105438;-47
2021/08/23 04:36:47;;;;;;;10.60;8.47;;;21.50;99.90;;;21.93;60.44;101589.94;4991765;28;105268;-49
2021/08/23 04:39:13;;;;;;;11.93;9.83;;;21.50;99.90;;;21.88;60.59;101589.41;5002449;27;98713;-51
2021/08/23 04:41:41;;;;;;;8.37;7.50;;;21.40;99.90;;;21.83;60.78;101594.22;4974311;28;97865;-47
2021/08/23 04:44:08;;;;;;;3.60;3.23;;;21.40;99.90;;;21.81;60.80;101598.84;4987648;27;97274;-53
2021/08/23 04:46:37;;;;;;;3.20;2.77;;;21.40;99.90;;;21.86;60.74;101615.53;4988745;28;97496;-50
2021/08/23 04:49:04;;;;;;;14.13;12.47;;;21.50;99.90;;;21.87;60.62;101611.88;4990509;27;97409;-56
2021/08/23 04:51:30;;;;;;;11.70;9.90;;;21.60;99.90;;;21.83;60.75;101604.97;4991477;27;96964;-52
2021/08/23 04:53:56;;;;;;;10.33;8.57;;;21.50;99.90;;;21.80;60.87;101610.56;4988381;28;98610;-52
2021/08/23 04:56:22;;;;;;;9.53;7.80;;;21.40;99.90;;;21.80;60.88;101615.94;4986847;27;98569;-47
2021/08/23 04:58:48;;;;;;;2.93;2.73;;;21.40;99.90;;;21.80;60.87;101615.94;4988997;28;98195;-52
2021/08/23 05:01:14;;;;;;;14.13;11.23;;;21.40;99.90;;;21.79;60.81;101604.31;4989385;28;97453;-52
2021/08/23 05:03:40;;;;;;;10.83;9.73;;;21.40;99.90;;;21.79;60.96;101619.56;4989564;28;98163;-51
2021/08/23 05:06:06;;;;;;;11.60;8.60;;;21.40;99.90;;;21.79;60.97;101608.84;4991106;27;97146;-48
2021/08/23 05:08:32;;;;;;;10.10;8.23;;;21.40;99.90;;;21.79;60.82;101616.88;4987610;28;97311;-51
2021/08/23 05:10:58;;;;;;;14.77;12.93;;;21.40;99.90;;;21.80;60.74;101615.94;4982335;27;104089;-46
2021/08/23 05:13:24;;;;;;;16.03;12.33;;;21.50;99.90;;;21.75;61.08;101612.69;5002372;27;101938;-50
2021/08/23 05:15:50;;;;;;;13.33;11.43;;;21.40;99.90;;;21.67;61.28;101611.38;4990334;27;97156;-49
2021/08/23 05:18:16;;;;;;;14.70;12.40;;;21.30;99.90;;;21.69;61.20;101616.63;4998738;27;97438;-53
2021/08/23 05:20:42;;;;;;;13.80;11.40;;;21.30;99.90;;;21.68;61.25;101613.09;5000899;27;96904;-52
2021/08/23 05:23:08;;;;;;;12.13;10.70;;;21.30;99.90;;;21.63;61.50;101617.94;5000659;27;98605;-48
2021/08/23 05:25:34;;;;;;;10.77;8.77;;;21.20;99.90;;;21.63;61.52;101620.59;4983542;28;99759;-49
2021/08/23 05:28:01;;;;;;;10.70;9.60;;;21.20;99.90;;;21.63;61.45;101622.44;5007103;27;97229;-48
2021/08/23 05:30:27;;;;;;;14.97;13.07;;;21.20;99.90;;;21.61;61.28;101619.84;4986856;27;98482;-52
2021/08/23 05:32:53;;;;;;;14.93;12.23;;;21.20;99.90;;;21.62;61.42;101624.25;4991417;28;97333;-47
2021/08/23 05:35:19;;;;;;;13.97;12.17;;;21.20;99.90;;;21.62;61.57;101634.13;4982857;27;98453;-49
2021/08/23 05:37:45;;;;;;;14.57;13.17;;;21.20;99.90;;;21.62;61.66;101635.00;5006107;27;97266;-48
2021/08/23 05:40:11;;;;;;;17.00;13.50;;;21.20;99.90;;;21.62;61.43;101629.63;4989787;27;97151;-52
2021/08/23 05:42:37;;;;;;;7.00;6.30;;;21.20;99.90;;;21.65;61.44;101628.56;4991411;28;98134;-49
2021/08/23 05:45:04;;;;;;;13.77;12.37;;;21.20;99.90;;;21.65;61.35;101634.78;4990904;27;99038;-56
2021/08/23 05:47:30;;;;;;;7.80;6.10;;;21.30;99.90;;;21.65;61.37;101640.16;4992789;28;97329;-49
2021/08/23 05:49:56;;;;;;;11.53;9.93;;;21.30;99.90;;;21.66;61.48;101641.88;4989178;28;97167;-50
2021/08/23 05:52:22;;;;;;;17.03;13.53;;;21.30;99.90;;;21.65;61.57;101645.53;4991502;27;97422;-49
2021/08/23 05:54:49;;;;;;;16.87;13.87;;;21.30;99.90;;;21.64;61.84;101643.81;4992179;28;100598;-47
2021/08/23 05:57:15;;;;;;;16.97;15.17;;;21.20;99.90;;;21.63;61.77;101642.09;4992037;27;97151;-50
2021/08/23 05:59:41;;;;;;;16.97;13.73;;;21.20;99.90;;;21.59;62.46;101639.72;4993252;28;97416;-48
2021/08/23 06:02:07;;;;;;;17.43;15.50;;;21.20;99.90;;;21.58;62.12;101644.22;4989376;27;99554;-48
2021/08/23 06:04:33;;;;;;;17.00;15.30;;;21.10;99.90;;;21.59;62.00;101640.56;4997374;28;97411;-51
2021/08/23 06:07:00;;;;;;;13.93;12.53;;;21.20;99.90;;;21.61;61.78;101649.38;5008700;27;97511;-48
2021/08/23 06:09:26;;;;;;;10.27;9.00;;;21.20;99.90;;;21.63;61.62;101647.44;5004316;27;97051;-49
2021/08/23 06:11:51;;;;;;;12.40;10.73;;;21.20;99.90;;;21.66;61.58;101651.75;4993995;28;100564;-53
2021/08/23 06:14:18;;;;;;;11.20;10.00;;;21.30;99.90;;;21.69;61.46;101662.28;4991607;27;97668;-48
2021/08/23 06:16:44;;;;;;;13.13;11.87;;;21.30;99.90;;;21.72;61.44;101655.88;4993363;28;97239;-49
2021/08/23 06:19:09;;;;;;;11.10;9.87;;;21.40;99.90;;;21.74;61.35;101659.31;5004469;27;97176;-48
2021/08/23 06:21:35;;;;;;;19.37;15.70;;;21.40;99.90;;;21.76;61.34;101662.75;4991843;28;99979;-46
2021/08/23 06:24:02;;;;;;;17.43;15.70;;;21.40;99.90;;;21.74;61.42;101665.53;4993163;28;99979;-47
2021/08/23 06:26:28;;;;;;;22.40;17.07;;;21.40;99.90;;;21.69;62.46;101665.81;4990632;28;97512;-47
2021/08/23 06:28:54;;;;;;;17.57;15.80;;;21.30;99.90;;;21.69;62.43;101668.50;4992968;27;97169;-49
2021/08/23 06:31:20;;;;;;;17.90;15.97;;;21.40;99.90;;;21.65;62.94;101674.19;4986967;28;97284;-51
2021/08/23 06:33:46;;;;;;;20.20;17.20;;;21.30;99.90;;;21.60;62.65;101661.09;4994019;28;106062;-50
2021/08/23 06:36:12;;;;;;;19.87;17.30;;;21.20;99.90;;;21.61;62.00;101668.19;4984092;27;97849;-50
2021/08/23 06:38:37;;;;;;;20.27;17.50;;;21.20;99.90;;;21.59;63.22;101672.78;4992588;28;97157;-47
2021/08/23 06:41:03;;;;;;;20.40;18.03;;;21.20;99.90;;;21.60;62.02;101669.16;4988884;28;100209;-56
2021/08/23 06:43:29;;;;;;;21.77;19.50;;;21.20;99.90;;;21.57;63.69;101663.97;5004028;27;110885;-49
2021/08/23 06:45:55;;;;;;;20.73;18.63;;;21.20;99.90;;;21.56;64.02;101678.38;4996738;28;103095;-49
2021/08/23 06:48:20;;;;;;;23.77;21.33;;;21.20;99.90;;;21.53;63.51;101675.84;5003783;27;96954;-49
2021/08/23 06:50:46;;;;;;;21.13;18.87;;;21.20;99.90;;;21.55;62.61;101682.00;4995004;28;103564;-51
2021/08/23 06:53:12;;;;;;;22.23;17.43;;;21.20;99.90;;;21.55;62.44;101676.63;4988867;28;97406;-48
2021/08/23 06:55:38;;;;;;;22.00;19.70;;;21.20;99.90;;;21.48;64.77;101680.69;4986108;27;104846;-49
2021/08/23 06:58:04;;;;;;;22.67;20.37;;;21.20;99.90;;;21.41;65.53;101684.75;4996480;27;98738;-52
2021/08/23 07:00:30;;;;;;;25.23;21.97;;;21.10;99.90;;;21.36;65.40;101681.47;4964468;28;104905;-50
2021/08/23 07:02:56;;;;;;;25.00;22.30;;;21.00;99.90;;;21.29;66.66;101685.53;4983771;27;99484;-48
2021/08/23 07:05:22;;;;;;;24.63;22.00;;;21.00;99.90;;;21.26;66.11;101691.06;4966273;27;97786;-53
2021/08/23 07:07:49;;;;;;;25.20;22.47;;;20.90;99.90;;;21.25;65.99;101684.84;4969759;27;97232;-52
2021/08/23 07:10:15;;;;;;;24.50;21.87;;;20.90;99.90;;;21.24;66.04;101687.59;4963790;27;98719;-52
2021/08/23 07:12:42;;;;;;;23.30;20.87;;;20.90;99.90;;;21.26;65.47;101696.44;4966555;28;99382;-48
2021/08/23 07:15:09;;;;;;;25.43;20.87;;;20.90;99.90;;;21.19;66.71;101689.72;4983034;27;98212;-49
2021/08/23 07:17:35;;;;;;;24.50;20.77;;;20.90;99.90;;;21.25;64.65;101700.06;4973260;27;98658;-52
2021/08/23 07:20:02;;;;;;;24.00;21.47;;;20.90;99.90;;;21.25;65.80;101700.06;4972718;27;97927;-48
2021/08/23 07:22:28;;;;;;;24.43;21.53;;;20.90;99.90;;;21.23;66.50;101701.97;4981411;27;103643;-50
2021/08/23 07:24:54;;;;;;;24.10;21.00;;;20.90;99.90;;;21.19;67.08;101708.50;4970325;28;96810;-49
2021/08/23 07:27:20;;;;;;;24.07;21.60;;;20.90;99.90;;;21.18;67.27;101704.09;4968470;27;98066;-49
2021/08/23 07:29:46;;;;;;;25.97;21.93;;;20.90;99.90;;;21.22;64.28;101705.63;4970848;27;98032;-49
2021/08/23 07:32:12;;;;;;;24.13;21.53;;;20.90;99.90;;;21.28;65.45;101706.13;4965716;27;100489;-51
2021/08/23 07:34:38;;;;;;;24.43;21.87;;;21.00;99.90;;;21.39;63.07;101716.16;4971455;27;100185;-49
2021/08/23 07:37:04;;;;;;;23.93;21.50;;;21.10;99.90;;;21.48;63.36;101709.34;4969106;28;99991;-52
2021/08/23 07:39:30;;;;;;;27.87;22.90;;;21.20;99.90;;;21.50;63.16;101710.97;4970822;28;98893;-51
2021/08/23 07:41:56;;;;;;;25.07;22.23;;;21.20;99.90;;;21.48;64.26;101712.88;4971604;28;98732;-48
2021/08/23 07:44:22;;;;;;;25.80;23.10;;;21.20;99.90;;;21.27;65.68;101704.41;4966783;27;97737;-51
2021/08/23 07:46:48;;;;;;;13.83;9.30;;;21.10;99.90;;;21.14;64.88;101713.31;4972280;27;97537;-52
2021/08/23 07:49:14;;;;;;;27.73;23.57;;;20.80;99.90;;;21.28;64.06;101716.00;4964538;27;99483;-52
2021/08/23 07:51:40;;;;;;;29.13;23.93;;;21.00;99.90;;;21.34;63.83;101711.09;4975692;27;98555;-53
2021/08/23 07:54:05;;;;;;;27.57;23.47;;;21.00;99.90;;;21.45;63.27;101713.09;4966556;27;96978;-55
2021/08/23 07:56:31;;;;;;;26.63;23.53;;;21.20;99.90;;;21.45;64.66;101713.09;4985347;27;97294;-55
2021/08/23 07:58:57;;;;;;;26.03;22.93;;;21.20;99.90;;;21.49;63.99;101711.94;4969794;28;99690;-52
2021/08/23 08:01:25;;;;;;;27.23;23.57;;;21.20;99.90;;;21.56;63.05;101715.09;4969194;27;99697;-51
2021/08/23 08:03:51;;;;;;;29.17;22.63;;;21.30;99.90;;;21.61;62.45;101708.44;4971681;28;97213;-55
2021/08/23 08:06:19;;;;;;;21.87;19.27;;;21.40;99.90;;;21.65;62.42;101712.66;4970173;27;97295;-51
2021/08/23 08:08:45;;;;;;;26.37;22.50;;;21.40;99.90;;;21.67;64.36;101718.78;4974722;28;98592;-53
2021/08/23 08:11:11;;;;;;;25.47;21.57;;;21.40;99.90;;;21.69;64.19;101714.16;4973317;27;97463;-54
2021/08/23 08:13:36;;;;;;;12.80;11.33;;;21.50;99.90;;;21.76;62.15;101716.47;4975785;28;98220;-52
2021/08/23 08:16:02;;;;;;;24.17;21.57;;;21.50;99.90;;;21.81;62.56;101719.69;4976369;27;98912;-55
2021/08/23 08:18:28;;;;;;;23.03;20.63;;;21.60;99.90;;;21.84;61.88;101719.47;4973943;27;102600;-50
2021/08/23 08:20:54;;;;;;;24.67;20.60;;;21.60;99.90;;;21.87;62.91;101719.31;4975320;27;98558;-54
2021/08/23 08:23:20;;;;;;;24.13;20.93;;;21.60;99.90;;;21.81;64.94;101714.31;4973059;27;98102;-53
2021/08/23 08:25:46;;;;;;;24.97;21.60;;;21.60;99.90;;;21.86;61.91;101718.44;4975338;27;98695;-54
2021/08/23 08:28:12;;;;;;;24.07;21.10;;;21.60;99.90;;;21.85;64.28;101721.25;4968940;27;99831;-52
2021/08/23 08:30:39;;;;;;;17.10;15.27;;;21.60;99.90;;;21.92;61.55;101725.22;4975393;28;98561;-49
2021/08/23 08:33:05;;;;;;;7.47;6.77;;;21.70;99.90;;;21.93;61.33;101730.50;4973713;27;98317;-56
2021/08/23 08:35:32;;;;;;;18.67;16.13;;;21.70;99.90;;;21.98;61.62;101732.84;4977062;28;97646;-54
2021/08/23 08:37:58;;;;;;;7.50;6.80;;;21.80;99.90;;;21.98;61.08;101739.09;4972756;27;100984;-51
2021/08/23 08:40:24;;;;;;;6.27;5.67;;;21.80;99.90;;;22.07;60.73;101744.88;4986985;27;98338;-52
2021/08/23 08:42:51;;;;;;;11.27;9.27;;;21.90;99.90;;;22.12;60.74;101748.09;4972963;28;99675;-50
2021/08/23 08:45:18;;;;;;;6.80;6.20;;;22.00;99.90;;;22.11;60.62;101754.44;4984865;27;98569;-49
2021/08/23 08:47:45;;;;;;;7.30;6.53;;;22.00;99.90;;;22.15;60.60;101762.22;4975758;27;98259;-50
2021/08/23 08:50:15;;;;;;;11.37;10.13;;;22.10;99.90;;;22.23;60.44;101759.84;4982623;27;100122;-53
2021/08/23 08:52:45;;;;;;;17.93;16.10;;;22.10;99.90;;;22.27;60.13;101758.66;4987590;27;97347;-52
2021/08/23 08:55:11;;;;;;;13.93;12.57;;;22.20;99.90;;;22.32;60.20;101765.59;4981684;27;98242;-55
2021/08/23 08:57:38;;;;;;;14.70;13.13;;;22.20;99.90;;;22.32;60.20;101774.50;4971726;27;99044;-50
2021/08/23 09:00:06;;;;;;;5.80;5.20;;;22.20;99.90;;;22.32;59.91;101770.97;4982331;27;98929;-59
2021/08/23 09:02:33;;;;;;;6.03;5.40;;;22.20;99.90;;;22.39;59.46;101765.06;4964685;28;99515;-52
2021/08/23 09:04:58;;;;;;;18.37;16.40;;;22.30;99.90;;;22.46;59.80;101773.56;4984967;27;98862;-52
2021/08/23 09:07:36;;;;;;;21.23;19.03;;;22.40;99.90;;;22.52;61.26;101775.84;4966517;27;99406;-54
2021/08/23 09:10:18;;;;;;;5.87;5.30;;;22.40;99.90;;;22.52;59.26;101770.47;4983489;27;98959;-54
2021/08/23 09:12:44;;;;;;;18.30;16.30;;;22.40;99.90;;;22.50;63.29;101783.16;4982531;27;98935;-51
2021/08/23 09:15:10;;;;;;;6.07;5.53;;;22.40;99.90;;;22.49;59.22;101778.75;4973357;27;98845;-50
2021/08/23 09:17:36;;;;;;;5.80;5.20;;;22.40;99.90;;;22.47;59.32;101783.38;4967227;28;98506;-51
2021/08/23 09:20:07;;;;;;;17.57;15.83;;;22.40;99.90;;;22.53;60.07;101791.00;4978597;27;98577;-50
2021/08/23 09:22:33;;;;;;;5.57;5.07;;;22.40;99.90;;;22.50;59.25;101801.97;4963732;28;100137;-53
2021/08/23 09:25:12;;;;;;;5.70;5.03;;;22.40;99.90;;;22.53;59.10;101799.06;4985173;27;97948;-58
2021/08/23 09:27:38;;;;;;;16.00;14.47;;;22.40;99.90;;;22.51;62.61;101795.63;4975474;27;102586;-53
2021/08/23 09:30:07;;;;;;;14.50;13.00;;;22.40;99.90;;;22.41;60.52;101799.88;4981013;27;100098;-58
2021/08/23 09:32:50;;;;;;;15.57;13.97;;;22.20;99.90;;;22.35;65.10;101794.94;4966130;28;97550;-51
2021/08/23 09:35:47;;;;;;;16.47;13.40;;;22.10;99.90;;;22.25;61.07;101800.91;4993534;27;97167;-50
2021/08/23 09:38:17;;;;;;;15.33;13.83;;;22.00;99.90;;;22.20;64.82;101805.75;4985152;27;98805;-52
2021/08/23 09:40:43;;;;;;;10.73;9.73;;;22.00;99.90;;;22.14;61.13;101813.38;4986663;28;98975;-53
2021/08/23 09:43:13;;;;;;;8.57;7.80;;;22.00;99.90;;;22.10;61.98;101818.06;4965826;27;97685;-55
2021/08/23 09:45:47;;;;;;;5.77;5.27;;;21.90;99.90;;;22.14;60.59;101818.75;5003378;27;97476;-52
2021/08/23 09:48:15;;;;;;;6.10;5.57;;;22.00;99.90;;;22.15;60.38;101825.84;4987971;27;98220;-53
2021/08/23 09:50:43;;;;;;;6.53;5.93;;;22.10;99.90;;;22.24;60.23;101820.69;4982729;28;99806;-54
2021/08/23 09:53:12;;;;;;;19.43;16.20;;;22.10;99.90;;;22.30;61.33;101823.97;4989988;27;97331;-52
2021/08/23 09:55:47;;;;;;;17.13;15.40;;;22.20;99.90;;;22.32;60.13;101819.34;4993018;28;96957;-53
2021/08/23 09:58:14;;;;;;;11.17;10.03;;;22.20;99.90;;;22.33;59.93;101815.69;4984178;27;100208;-51
2021/08/23 10:00:42;;;;;;;7.20;6.50;;;22.20;99.90;;;22.32;59.99;101816.66;4988044;28;100346;-48
2021/08/23 10:03:15;;;;;;;18.07;16.03;;;22.20;99.90;;;22.37;62.72;101814.50;4991834;28;97330;-52
2021/08/23 10:05:50;;;;;;;14.70;13.23;;;22.30;99.90;;;22.39;60.25;101823.31;4987765;28;97756;-48